Time;durP1;ratioP1;P1;durP2;ratioP2;P2;SDS_P1;SDS_P2;PMS_P1;PMS_P2;Temp;Humidity;BMP_temperature;BMP_pressure;BME280_temperature;BME280_humidity;BME280_pressure;Samples;Min_cycle;Max_cycle;Signal;HPM_P1;HPM_P2
2021/03/25 00:00:56;;;;;;;1.00;0.75;;;;;;;3.70;100.00;100010.78;5006377;28;20061;-76
2021/03/25 00:04:01;;;;;;;0.50;0.50;;;;;;;3.66;100.00;100021.09;5007168;28;20061;-76
2021/03/25 00:07:04;;;;;;;0.93;0.93;;;;;;;3.73;100.00;100026.44;5007454;28;20065;-75
2021/03/25 00:10:10;;;;;;;1.42;1.20;;;;;;;3.68;100.00;100019.44;5008138;28;20064;-75
2021/03/25 00:13:14;;;;;;;0.85;0.85;;;;;;;3.57;100.00;100018.13;5012724;28;20410;-75
2021/03/25 00:16:17;;;;;;;0.65;0.65;;;;;;;3.53;100.00;100017.41;4980014;28;20057;-75
2021/03/25 00:19:21;;;;;;;1.10;0.73;;;;;;;3.53;100.00;100022.94;4965865;28;20069;-75
2021/03/25 00:22:25;;;;;;;1.05;1.05;;;;;;;3.47;100.00;100014.38;4969827;28;20061;-75
2021/03/25 00:25:33;;;;;;;1.23;1.23;;;;;;;3.53;100.00;100012.66;4970568;28;20189;-75
2021/03/25 00:28:36;;;;;;;1.70;1.05;;;;;;;3.57;100.00;100007.09;4968614;28;20053;-76
2021/03/25 00:31:43;;;;;;;1.40;1.10;;;;;;;3.54;100.00;100007.94;4969853;28;20617;-75
2021/03/25 00:34:47;;;;;;;0.82;0.82;;;;;;;3.55;100.00;99995.75;4962177;28;21113;-75
2021/03/25 00:37:50;;;;;;;1.30;1.20;;;;;;;3.52;100.00;99993.84;4960310;28;20057;-73
2021/03/25 00:40:54;;;;;;;1.55;0.85;;;;;;;3.44;100.00;99992.44;4961943;28;20060;-73
2021/03/25 00:43:57;;;;;;;2.70;1.13;;;;;;;3.44;100.00;99995.19;4962336;28;20596;-73
2021/03/25 00:47:00;;;;;;;1.75;1.15;;;;;;;3.40;100.00;99997.97;4961076;28;21435;-74
2021/03/25 00:50:09;;;;;;;12.15;1.15;;;;;;;3.33;100.00;99997.38;4965559;28;20061;-73
2021/03/25 00:53:19;;;;;;;2.65;0.88;;;;;;;3.35;100.00;100000.47;4962750;28;20077;-73
2021/03/25 00:56:23;;;;;;;1.17;1.13;;;;;;;3.26;100.00;100003.78;4967507;28;20739;-73
2021/03/25 00:59:27;;;;;;;2.60;1.35;;;;;;;3.17;100.00;100006.31;4966633;28;20061;-73
2021/03/25 01:02:30;;;;;;;0.70;0.70;;;;;;;3.06;100.00;100003.75;4967767;28;20061;-73
2021/03/25 01:05:35;;;;;;;1.30;1.23;;;;;;;2.96;100.00;100007.50;4979391;28;20052;-75
2021/03/25 01:08:39;;;;;;;0.88;0.88;;;;;;;2.93;100.00;100004.78;4968782;28;20069;-75
2021/03/25 01:11:43;;;;;;;1.00;1.00;;;;;;;2.94;100.00;100004.38;4959294;28;20996;-73
2021/03/25 01:14:47;;;;;;;3.05;1.48;;;;;;;2.93;100.00;99999.28;4959894;28;20084;-74
2021/03/25 01:17:54;;;;;;;1.95;1.27;;;;;;;2.92;100.00;100006.00;4959468;28;20057;-73
2021/03/25 01:20:57;;;;;;;5.85;1.08;;;;;;;2.89;100.00;99996.59;4961723;28;20048;-73
2021/03/25 01:24:01;;;;;;;0.55;0.55;;;;;;;2.82;100.00;99991.22;4966818;28;20060;-73
2021/03/25 01:27:05;;;;;;;0.95;0.95;;;;;;;2.77;100.00;99991.69;4967114;28;20568;-73
2021/03/25 01:30:10;;;;;;;1.90;1.80;;;;;;;2.68;100.00;99988.72;4960976;28;20639;-73
2021/03/25 01:33:17;;;;;;;1.70;1.52;;;;;;;2.58;100.00;99981.44;4965266;28;20053;-73
2021/03/25 01:36:21;;;;;;;0.80;0.75;;;;;;;2.48;100.00;99982.38;4964676;28;20273;-74
2021/03/25 01:39:24;;;;;;;1.17;1.17;;;;;;;2.36;100.00;99980.22;4965454;28;20060;-76
2021/03/25 01:42:30;;;;;;;0.75;0.75;;;;;;;2.30;100.00;99990.13;4966961;28;20057;-76
2021/03/25 01:45:42;;;;;;;0.90;0.90;;;;;;;2.25;100.00;99990.63;4971206;28;20874;-77
2021/03/25 01:48:57;;;;;;;1.08;1.08;;;;;;;2.27;100.00;99982.75;4963604;28;20779;-77
2021/03/25 01:52:42;;;;;;;0.73;0.73;;;;;;;2.37;100.00;99987.28;4961353;28;20073;-77
2021/03/25 01:56:13;;;;;;;2.17;1.92;;;;;;;2.47;100.00;99989.06;4963181;28;20065;-76
2021/03/25 01:59:46;;;;;;;0.60;0.60;;;;;;;2.62;100.00;99982.13;4966948;28;20053;-77
2021/03/25 02:03:27;;;;;;;5.18;1.42;;;;;;;2.81;100.00;99977.91;4967151;28;20092;-76
2021/03/25 02:06:38;;;;;;;1.92;1.13;;;;;;;2.95;100.00;99978.41;4964999;28;20060;-78
2021/03/25 02:09:59;;;;;;;20.63;1.67;;;;;;;3.07;100.00;99979.78;4968564;28;20057;-77
2021/03/25 02:13:25;;;;;;;1.20;1.20;;;;;;;3.20;100.00;99982.69;4967108;28;20061;-76
2021/03/25 02:16:56;;;;;;;0.65;0.65;;;;;;;3.31;100.00;99975.78;4966008;28;20053;-77
2021/03/25 02:20:00;;;;;;;1.58;1.48;;;;;;;3.42;100.00;99972.81;4965496;28;20617;-79
2021/03/25 02:23:04;;;;;;;1.92;1.45;;;;;;;3.50;100.00;99963.19;4961633;28;20068;-77
2021/03/25 02:26:19;;;;;;;0.73;0.68;;;;;;;3.58;100.00;99970.09;5004645;28;20065;-75
2021/03/25 02:29:39;;;;;;;1.15;1.02;;;;;;;3.65;100.00;99962.47;5010216;28;20418;-76
2021/03/25 02:32:48;;;;;;;11.35;1.63;;;;;;;3.70;100.00;99961.19;5010678;28;20517;-76
2021/03/25 02:36:00;;;;;;;3.50;1.05;;;;;;;3.75;100.00;99966.19;5003474;28;20069;-76
2021/03/25 02:39:11;;;;;;;4.78;1.05;;;;;;;3.77;100.00;99955.53;5003887;28;20065;-76
2021/03/25 02:42:18;;;;;;;0.70;0.70;;;;;;;3.77;100.00;99956.31;5010162;28;20069;-76
2021/03/25 02:45:29;;;;;;;5.95;1.60;;;;;;;3.79;100.00;99948.38;5009737;28;20643;-76
2021/03/25 02:48:35;;;;;;;0.70;0.70;;;;;;;3.81;100.00;99951.50;5010194;28;20061;-76
2021/03/25 02:51:46;;;;;;;5.28;1.35;;;;;;;3.83;100.00;99943.56;5014098;28;20076;-76
2021/03/25 02:54:51;;;;;;;9.95;1.83;;;;;;;3.88;100.00;99947.81;5006975;28;20130;-78
2021/03/25 02:58:20;;;;;;;2.40;1.42;;;;;;;3.97;100.00;99942.47;5007746;28;20528;-76
2021/03/25 03:01:24;;;;;;;0.60;0.60;;;;;;;4.08;100.00;99934.75;5013376;28;20072;-79
2021/03/25 03:04:30;;;;;;;0.60;0.60;;;;;;;4.20;100.00;99927.78;5014061;28;20069;-78
2021/03/25 03:07:44;;;;;;;0.98;0.85;;;;;;;4.30;100.00;99926.75;5014118;28;20053;-76
2021/03/25 03:11:14;;;;;;;2.05;1.67;;;;;;;4.50;100.00;99933.69;5012595;28;20397;-76
2021/03/25 03:14:34;;;;;;;5.00;0.50;;;;;;;4.46;100.00;99930.25;5013218;28;20409;-75
2021/03/25 03:17:47;;;;;;;0.73;0.73;;;;;;;4.46;100.00;99926.75;5013926;28;20061;-76
2021/03/25 03:20:59;;;;;;;0.93;0.93;;;;;;;4.51;100.00;99929.75;5006310;28;20080;-76
2021/03/25 03:24:04;;;;;;;0.90;0.90;;;;;;;4.57;100.00;99925.25;5012864;28;20081;-76
2021/03/25 03:27:17;;;;;;;0.65;0.65;;;;;;;4.51;100.00;99907.69;5012685;28;20045;-76
2021/03/25 03:30:24;;;;;;;0.65;0.65;;;;;;;4.48;100.00;99905.78;5009867;28;20137;-75
2021/03/25 03:33:36;;;;;;;5.15;0.90;;;;;;;4.50;100.00;99908.88;5013594;28;20065;-79
2021/03/25 03:36:42;;;;;;;0.40;0.40;;;;;;;4.54;100.00;99909.59;5013344;28;20073;-76
2021/03/25 03:39:48;;;;;;;1.20;0.93;;;;;;;4.52;100.00;99911.22;5005584;28;20061;-76
2021/03/25 03:42:57;;;;;;;13.98;0.80;;;;;;;4.54;100.00;99915.09;5006535;28;20098;-75
2021/03/25 03:46:08;;;;;;;0.52;0.52;;;;;;;4.62;100.00;99904.66;5007741;28;20081;-76
2021/03/25 03:49:11;;;;;;;0.85;0.85;;;;;;;4.66;100.00;99905.31;5012963;28;20061;-76
2021/03/25 03:52:21;;;;;;;4.25;1.27;;;;;;;4.69;100.00;99900.94;5011596;28;20064;-76
2021/03/25 03:55:25;;;;;;;1.50;0.73;;;;;;;4.73;100.00;99901.59;5012339;28;20425;-76
2021/03/25 03:58:40;;;;;;;5.95;0.88;;;;;;;4.71;100.00;99899.28;5013256;28;20061;-76
2021/03/25 04:01:51;;;;;;;10.25;1.48;;;;;;;4.72;100.00;99902.81;5004437;28;20065;-76
2021/03/25 04:05:17;;;;;;;0.73;0.70;;;;;;;4.76;100.00;99897.97;5006533;28;20057;-78
2021/03/25 04:08:32;;;;;;;0.30;0.30;;;;;;;4.79;100.00;99894.34;5012253;28;20064;-78
2021/03/25 04:11:56;;;;;;;1.92;1.83;;;;;;;4.86;100.00;99891.41;5013175;28;21055;-76
2021/03/25 04:15:16;;;;;;;0.30;0.30;;;;;;;4.92;100.00;99889.66;5007417;28;20057;-78
2021/03/25 04:18:29;;;;;;;0.47;0.47;;;;;;;4.95;100.00;99892.31;5012193;28;20061;-78
2021/03/25 04:21:37;;;;;;;0.85;0.47;;;;;;;4.99;100.00;99883.94;5012632;28;20048;-78
2021/03/25 04:25:01;;;;;;;0.88;0.88;;;;;;;5.03;100.00;99890.13;5012618;28;20069;-78
2021/03/25 04:28:23;;;;;;;0.70;0.70;;;;;;;5.06;100.00;99886.50;5011359;28;20536;-78
2021/03/25 04:31:29;;;;;;;0.77;0.77;;;;;;;5.06;100.00;99878.22;5009859;28;20076;-77
2021/03/25 04:34:33;;;;;;;1.73;0.73;;;;;;;5.08;100.00;99875.81;5012365;28;20068;-78
2021/03/25 04:37:37;;;;;;;0.60;0.60;;;;;;;5.12;100.00;99871.72;5012174;28;20056;-78
2021/03/25 04:40:40;;;;;;;9.85;1.15;;;;;;;5.15;100.00;99875.59;5012344;28;20065;-78
2021/03/25 04:43:47;;;;;;;2.00;0.98;;;;;;;5.16;100.00;99866.88;5004167;28;20060;-78
2021/03/25 04:47:09;;;;;;;0.43;0.43;;;;;;;5.20;100.00;99873.06;5004952;28;20056;-78
2021/03/25 04:50:22;;;;;;;0.52;0.52;;;;;;;5.24;100.00;99864.69;5011969;28;20064;-78
2021/03/25 04:53:30;;;;;;;0.40;0.40;;;;;;;5.26;100.00;99870.56;5009193;28;20069;-76
2021/03/25 04:56:34;;;;;;;0.47;0.47;;;;;;;5.27;100.00;99866.56;5011897;28;20414;-76
2021/03/25 04:59:38;;;;;;;1.17;0.75;;;;;;;5.32;100.00;99858.53;5011890;28;20069;-77
2021/03/25 05:02:42;;;;;;;7.75;1.17;;;;;;;5.34;100.00;99858.84;5012059;28;20382;-78
2021/03/25 05:05:46;;;;;;;0.30;0.30;;;;;;;5.37;100.00;99854.44;5004270;28;20134;-76
2021/03/25 05:08:54;;;;;;;0.40;0.40;;;;;;;5.42;100.00;99859.41;5004344;28;20410;-78
2021/03/25 05:12:02;;;;;;;0.60;0.60;;;;;;;5.46;100.00;99851.78;5010745;28;20057;-78
2021/03/25 05:15:10;;;;;;;1.75;0.30;;;;;;;5.49;100.00;99859.19;5006733;28;20061;-77
2021/03/25 05:18:30;;;;;;;0.90;0.80;;;;;;;5.51;100.00;99847.69;5011080;28;20057;-78
2021/03/25 05:22:01;;;;;;;1.10;0.70;;;;;;;5.48;100.00;99845.84;5009368;28;20072;-78
2021/03/25 05:25:11;;;;;;;0.70;0.70;;;;;;;5.45;100.00;99855.00;5011223;28;20076;-78
2021/03/25 05:28:35;;;;;;;1.20;0.50;;;;;;;5.41;100.00;99844.06;5007205;28;20286;-78
2021/03/25 05:31:40;;;;;;;0.75;0.75;;;;;;;5.40;100.00;99842.50;5010350;28;20517;-77
2021/03/25 05:34:45;;;;;;;4.00;0.52;;;;;;;5.40;100.00;99842.50;5003371;28;20064;-77
2021/03/25 05:37:49;;;;;;;0.70;0.70;;;;;;;5.33;100.00;99842.72;5003762;28;20068;-78
2021/03/25 05:41:13;;;;;;;0.65;0.65;;;;;;;5.25;100.00;99841.38;5004321;28;20076;-77
2021/03/25 05:44:36;;;;;;;6.72;1.80;;;;;;;5.17;100.00;99840.84;5011126;28;20525;-78
2021/03/25 05:47:39;;;;;;;5.72;1.13;;;;;;;5.10;100.00;99845.78;5010278;28;20072;-78
2021/03/25 05:51:14;;;;;;;0.47;0.47;;;;;;;4.98;100.00;99838.25;5011138;28;20072;-78
2021/03/25 05:54:22;;;;;;;2.22;0.82;;;;;;;4.86;100.00;99844.50;5007260;28;20064;-78
2021/03/25 05:57:55;;;;;;;8.60;0.82;;;;;;;4.72;100.00;99850.41;5011008;28;20414;-78
2021/03/25 06:01:15;;;;;;;0.90;0.90;;;;;;;4.63;100.00;99857.31;5010905;28;20065;-78
2021/03/25 06:04:36;;;;;;;2.95;1.00;;;;;;;4.58;100.00;99860.63;5006852;28;20426;-78
2021/03/25 06:08:28;;;;;;;0.75;0.75;;;;;;;4.54;100.00;99857.19;5010189;28;20064;-78
2021/03/25 06:12:08;;;;;;;0.77;0.77;;;;;;;4.48;100.00;99856.16;4970531;28;20058;-79
2021/03/25 06:15:48;;;;;;;0.80;0.80;;;;;;;4.39;100.00;99867.03;5005442;28;20068;-78
2021/03/25 06:19:04;;;;;;;1.45;1.35;;;;;;;4.37;100.00;99861.19;5010140;28;20068;-78
2021/03/25 06:22:21;;;;;;;5.15;0.80;;;;;;;4.41;100.00;99861.88;5005905;28;20076;-78
2021/03/25 06:25:39;;;;;;;0.90;0.90;;;;;;;4.46;100.00;99853.06;5009998;28;20561;-78
2021/03/25 06:29:02;;;;;;;0.77;0.77;;;;;;;4.53;100.00;99863.91;5009951;28;20049;-78
2021/03/25 06:32:17;;;;;;;0.75;0.75;;;;;;;4.61;100.00;99854.22;5010081;28;20060;-78
2021/03/25 06:35:27;;;;;;;1.63;0.85;;;;;;;4.72;100.00;99853.19;5009904;28;20057;-78
2021/03/25 06:38:39;;;;;;;0.50;0.50;;;;;;;4.78;100.00;99854.97;5010236;28;20065;-78
2021/03/25 06:41:52;;;;;;;0.93;0.75;;;;;;;4.85;100.00;99856.75;5010556;28;20516;-78
2021/03/25 06:45:09;;;;;;;12.32;1.25;;;;;;;4.91;100.00;99860.53;5003894;28;20076;-78
2021/03/25 06:48:37;;;;;;;2.08;0.70;;;;;;;4.96;100.00;99860.75;5010256;28;20057;-79
2021/03/25 06:51:41;;;;;;;4.22;0.65;;;;;;;5.04;100.00;99858.56;5009343;28;20057;-78
2021/03/25 06:54:45;;;;;;;1.05;0.63;;;;;;;5.08;100.00;99864.75;5010093;28;20513;-77
2021/03/25 06:57:56;;;;;;;0.80;0.75;;;;;;;5.15;100.00;99867.31;5010178;28;20065;-78
2021/03/25 07:01:20;;;;;;;0.90;0.88;;;;;;;5.20;100.00;99864.00;5004665;28;20057;-77
2021/03/25 07:04:27;;;;;;;5.25;0.90;;;;;;;5.31;100.00;99861.69;5009495;28;20065;-78
2021/03/25 07:07:33;;;;;;;0.38;0.38;;;;;;;5.37;100.00;99860.72;5010130;28;20056;-78
2021/03/25 07:10:37;;;;;;;23.50;1.33;;;;;;;5.37;100.00;99857.22;5010041;28;20125;-78
2021/03/25 07:13:54;;;;;;;0.60;0.60;;;;;;;5.33;100.00;99851.78;5010282;28;20069;-78
2021/03/25 07:16:58;;;;;;;1.48;0.98;;;;;;;5.36;100.00;99858.41;5003650;28;20057;-78
2021/03/25 07:20:31;;;;;;;8.98;0.93;;;;;;;5.51;100.00;99859.53;5010048;28;20065;-78
2021/03/25 07:23:44;;;;;;;0.82;0.82;;;;;;;5.64;100.00;99852.00;5008241;28;20065;-79
2021/03/25 07:26:54;;;;;;;0.80;0.80;;;;;;;5.64;100.00;99849.25;5001599;28;20061;-79
2021/03/25 07:30:07;;;;;;;0.47;0.47;;;;;;;5.64;100.00;99857.53;5003059;28;20458;-78
2021/03/25 07:33:15;;;;;;;0.60;0.60;;;;;;;5.66;100.00;99863.41;5008884;28;20525;-79
2021/03/25 07:36:18;;;;;;;1.30;0.45;;;;;;;5.76;100.00;99865.03;5007740;28;20426;-79
2021/03/25 07:39:26;;;;;;;3.05;1.55;;;;;;;5.77;100.00;99863.84;5012720;28;20062;-79
2021/03/25 07:42:33;;;;;;;2.85;0.90;;;;;;;5.81;100.00;99858.97;5012745;28;20053;-80
2021/03/25 07:45:37;;;;;;;1.85;1.00;;;;;;;5.83;100.00;99869.56;5012664;28;20057;-79
2021/03/25 07:48:40;;;;;;;11.82;1.02;;;;;;;5.83;100.00;99858.53;5013236;28;20545;-80
2021/03/25 07:51:46;;;;;;;1.85;1.05;;;;;;;5.90;100.00;99870.16;5024037;28;20065;-81
2021/03/25 07:54:50;;;;;;;1.05;0.70;;;;;;;5.91;100.00;99860.66;5005840;28;20065;-79
2021/03/25 07:57:56;;;;;;;1.23;0.77;;;;;;;5.97;100.00;99855.34;5006721;28;20064;-80
2021/03/25 08:01:10;;;;;;;1.30;1.20;;;;;;;6.04;100.00;99863.41;5013460;28;20065;-80
2021/03/25 08:04:23;;;;;;;7.03;1.13;;;;;;;6.11;100.00;99863.94;5012520;28;20433;-79
2021/03/25 08:07:35;;;;;;;8.70;1.92;;;;;;;6.26;100.00;99866.25;5012337;28;20057;-79
2021/03/25 08:10:44;;;;;;;5.93;0.63;;;;;;;6.30;100.00;99875.19;5013294;28;20064;-78
2021/03/25 08:14:18;;;;;;;1.10;1.10;;;;;;;6.35;100.00;99866.31;5011054;28;20080;-79
2021/03/25 08:17:21;;;;;;;1.20;1.10;;;;;;;6.49;100.00;99868.63;5008421;28;20064;-78
2021/03/25 08:20:27;;;;;;;4.10;1.48;;;;;;;6.74;100.00;99871.28;5011829;28;20061;-79
2021/03/25 08:23:56;;;;;;;9.05;1.65;;;;;;;6.96;100.00;99863.78;5012083;28;20061;-79
2021/03/25 08:27:21;;;;;;;1.85;0.73;;;;;;;7.21;100.00;99860.84;5006852;28;20088;-78
2021/03/25 08:30:30;;;;;;;1.48;0.60;;;;;;;7.38;100.00;99862.22;5009695;28;20516;-78
2021/03/25 08:33:46;;;;;;;5.18;1.23;;;;;;;7.59;100.00;99858.59;5012749;28;20064;-80
2021/03/25 08:37:11;;;;;;;2.45;0.60;;;;;;;7.76;100.00;99855.59;5005090;28;20064;-79
2021/03/25 08:40:38;;;;;;;5.72;0.73;;;;;;;8.04;100.00;99844.13;5008286;28;20530;-78
2021/03/25 08:44:28;;;;;;;0.80;0.75;;;;;;;8.40;100.00;99851.78;5011148;28;20085;-79
2021/03/25 08:47:31;;;;;;;2.63;1.02;;;;;;;8.81;100.00;99850.41;5011381;28;20056;-79
2021/03/25 08:50:42;;;;;;;3.70;1.10;;;;;;;9.13;100.00;99844.97;5011807;28;20072;-79
2021/03/25 08:53:58;;;;;;;10.95;1.55;;;;;;;9.28;100.00;99847.09;5004602;28;20056;-78
2021/03/25 08:57:29;;;;;;;2.13;1.08;;;;;;;9.54;100.00;99837.13;5004838;28;20410;-78
2021/03/25 09:00:38;;;;;;;2.83;0.55;;;;;;;9.63;100.00;99837.88;5009033;28;20057;-79
2021/03/25 09:03:54;;;;;;;0.88;0.50;;;;;;;9.75;100.00;99833.34;5011287;28;20060;-81
2021/03/25 09:07:03;;;;;;;5.00;0.57;;;;;;;9.79;100.00;99834.72;5005101;28;20060;-79
2021/03/25 09:10:15;;;;;;;1.92;0.50;;;;;;;9.79;100.00;99837.50;5005869;28;20065;-78
2021/03/25 09:13:28;;;;;;;1.30;0.73;;;;;;;9.73;100.00;99830.25;5006789;28;20061;-79
2021/03/25 09:16:36;;;;;;;3.20;0.43;;;;;;;9.67;100.00;99834.94;5010953;28;20061;-78
2021/03/25 09:19:49;;;;;;;7.38;1.08;;;;;;;9.65;100.00;99840.19;5010119;28;20065;-79
2021/03/25 09:22:58;;;;;;;4.35;1.10;;;;;;;9.69;100.00;99836.00;5004118;28;20061;-80
2021/03/25 09:26:03;;;;;;;0.20;0.20;;;;;;;9.91;100.00;99824.63;5009808;28;20061;-79
2021/03/25 09:29:10;;;;;;;7.63;1.50;;;;;;;10.08;100.00;99828.53;5005463;28;20052;-79
2021/03/25 09:32:16;;;;;;;5.55;2.30;;;;;;;10.25;100.00;99826.13;5010540;28;20525;-80
2021/03/25 09:35:44;;;;;;;4.40;0.95;;;;;;;10.40;100.00;99830.53;5009878;28;20057;-79
2021/03/25 09:38:50;;;;;;;5.65;1.80;;;;;;;10.42;100.00;99841.94;5003027;28;20243;-80
2021/03/25 09:41:57;;;;;;;3.30;0.55;;;;;;;10.51;100.00;99843.91;5004100;28;20080;-82
2021/03/25 09:45:18;;;;;;;3.15;0.57;;;;;;;10.50;100.00;99840.34;5004870;28;20061;-82
2021/03/25 09:48:27;;;;;;;2.03;0.93;;;;;;;10.73;100.00;99832.44;5008265;28;20073;-79
2021/03/25 09:51:31;;;;;;;4.47;1.10;;;;;;;10.99;100.00;99827.88;5018943;28;20298;-80
2021/03/25 09:54:54;;;;;;;3.45;0.80;;;;;;;11.13;100.00;99827.13;5008762;28;20052;-79
2021/03/25 09:57:58;;;;;;;2.85;0.90;;;;;;;11.21;100.00;99822.69;5001667;28;20052;-79
2021/03/25 10:01:02;;;;;;;6.10;1.48;;;;;;;11.22;100.00;99813.84;5009096;28;20065;-80
2021/03/25 10:04:34;;;;;;;5.85;0.68;;;;;;;11.09;100.00;99820.94;5005347;28;20057;-80
2021/03/25 10:07:38;;;;;;;2.88;0.75;;;;;;;10.99;100.00;99822.28;5008671;28;20421;-79
2021/03/25 10:10:41;;;;;;;6.03;0.60;;;;;;;10.96;100.00;99817.69;5010143;28;20141;-79
2021/03/25 10:13:46;;;;;;;1.08;0.45;;;;;;;10.98;100.00;99820.78;5002747;28;20434;-78
2021/03/25 10:16:49;;;;;;;9.13;1.15;;;;;;;10.90;100.00;99811.22;5002430;28;20060;-79
2021/03/25 10:19:53;;;;;;;10.23;1.15;;;;;;;10.80;100.00;99815.34;5003190;28;20065;-79
2021/03/25 10:22:57;;;;;;;5.00;0.90;;;;;;;10.65;100.00;99801.41;5003964;28;20421;-78
2021/03/25 10:26:03;;;;;;;8.82;1.02;;;;;;;10.55;100.00;99800.69;5009935;28;20106;-78
2021/03/25 10:29:10;;;;;;;0.43;0.30;;;;;;;10.82;100.00;99804.50;5005144;28;20057;-78
2021/03/25 10:32:23;;;;;;;1.10;0.40;;;;;;;11.03;100.00;99804.13;5005514;28;20061;-78
2021/03/25 10:35:32;;;;;;;2.38;0.68;;;;;;;11.09;100.00;99793.06;5008972;28;20061;-80
2021/03/25 10:38:51;;;;;;;0.13;0.10;;;;;;;11.12;100.00;99792.91;5009214;28;20065;-79
2021/03/25 10:41:56;;;;;;;1.58;0.30;;;;;;;11.07;100.00;99796.34;5003180;28;20061;-78
2021/03/25 10:45:19;;;;;;;0.57;0.30;;;;;;;11.39;100.00;99772.31;5004139;28;20065;-78
2021/03/25 10:48:23;;;;;;;6.40;0.25;;;;;;;11.74;100.00;99784.28;5006861;28;20517;-78
2021/03/25 10:51:27;;;;;;;0.95;0.32;;;;;;;12.09;100.00;99790.59;5009935;28;20069;-78
2021/03/25 10:54:37;;;;;;;2.83;0.40;;;;;;;12.10;100.00;99794.94;5009454;28;20060;-78
2021/03/25 10:57:45;;;;;;;3.30;0.43;;;;;;;12.13;100.00;99788.38;5009928;28;20077;-78
2021/03/25 11:00:49;;;;;;;0.40;0.30;;;;;;;12.21;100.00;99796.34;5002863;28;20057;-78
2021/03/25 11:03:53;;;;;;;3.40;0.22;;;;;;;12.19;100.00;99794.78;5009426;28;20053;-78
2021/03/25 11:07:12;;;;;;;3.45;0.32;;;;;;;12.09;100.00;99796.19;5003582;28;20061;-79
2021/03/25 11:10:20;;;;;;;0.10;0.10;;;;;;;12.03;100.00;99791.78;5006930;28;20077;-78
2021/03/25 11:13:25;;;;;;;0.38;0.20;;;;;;;11.90;100.00;99783.75;5010138;28;20521;-79
2021/03/25 11:16:31;;;;;;;0.55;0.30;;;;;;;11.86;100.00;99790.78;5013187;28;20061;-79
2021/03/25 11:19:35;;;;;;;0.20;0.20;;;;;;;11.73;100.00;99773.59;5013161;28;20068;-78
2021/03/25 11:22:38;;;;;;;0.68;0.30;;;;;;;11.63;100.00;99775.72;5013309;28;20528;-78
2021/03/25 11:25:42;;;;;;;5.00;0.50;;;;;;;11.47;100.00;99767.88;5004886;28;20414;-78
2021/03/25 11:28:46;;;;;;;1.00;0.50;;;;;;;11.32;100.00;99778.28;5005251;28;20077;-79
2021/03/25 11:32:07;;;;;;;1.77;0.30;;;;;;;11.29;100.00;99773.66;5005313;28;20061;-75
2021/03/25 11:35:33;;;;;;;3.25;0.70;;;;;;;11.57;100.00;99762.94;5009820;28;20061;-78
2021/03/25 11:38:41;;;;;;;2.35;0.85;;;;;;;11.76;100.00;99767.81;5012184;28;20072;-76
2021/03/25 11:41:47;;;;;;;4.47;0.45;;;;;;;12.00;100.00;99765.63;5005170;28;20069;-77
2021/03/25 11:44:50;;;;;;;1.92;0.45;;;;;;;12.22;100.00;99770.72;5005650;28;20061;-79
2021/03/25 11:47:54;;;;;;;1.00;0.20;;;;;;;12.31;100.00;99759.41;5006267;28;20513;-78
2021/03/25 11:51:17;;;;;;;2.55;0.52;;;;;;;12.55;100.00;99759.16;5012381;28;20068;-76
2021/03/25 11:54:38;;;;;;;4.03;0.68;;;;;;;12.87;100.00;99735.63;5011584;28;20525;-77
2021/03/25 11:57:41;;;;;;;1.47;0.40;;;;;;;13.04;100.00;99750.50;5012456;28;20418;-77
2021/03/25 12:01:06;;;;;;;1.65;0.32;;;;;;;13.01;100.00;99756.34;5004487;28;20112;-77
2021/03/25 12:04:15;;;;;;;0.38;0.17;;;;;;;12.94;100.00;99741.53;5011987;28;20088;-81
2021/03/25 12:07:26;;;;;;;3.08;0.68;;;;;;;12.73;100.00;99753.28;5007890;28;20073;-76
2021/03/25 12:10:30;;;;;;;1.85;0.38;;;;;;;12.73;100.00;99747.69;5012006;28;20057;-79
2021/03/25 12:13:34;;;;;;;0.88;0.10;;;;;;;12.95;100.00;99743.06;5013614;28;20414;-78
2021/03/25 12:16:38;;;;;;;0.60;0.10;;;;;;;12.86;100.00;99742.50;5014379;28;20073;-77
2021/03/25 12:19:42;;;;;;;0.10;0.10;;;;;;;12.60;100.00;99738.91;5011576;28;20065;-76
2021/03/25 12:22:45;;;;;;;1.40;0.30;;;;;;;12.54;100.00;99738.09;5011072;28;20073;-75
2021/03/25 12:25:52;;;;;;;0.65;0.25;;;;;;;12.46;100.00;99728.59;5004334;28;20057;-77
2021/03/25 12:29:02;;;;;;;0.28;0.28;;;;;;;12.31;100.00;99727.91;5004981;28;20525;-78
2021/03/25 12:32:10;;;;;;;0.40;0.22;;;;;;;12.22;100.00;99730.84;5005804;28;20061;-78
2021/03/25 12:35:16;;;;;;;0.55;0.28;;;;;;;12.23;100.00;99724.81;5011533;28;20087;-77
2021/03/25 12:38:20;;;;;;;2.20;0.30;;;;;;;12.36;100.00;99730.03;5010851;28;20057;-77
2021/03/25 12:41:36;;;;;;;1.48;0.32;;;;;;;12.34;100.00;99722.13;5011345;28;20057;-77
2021/03/25 12:44:39;;;;;;;2.45;0.40;;;;;;;12.52;100.00;99715.44;5012214;28;20061;-78
2021/03/25 12:47:43;;;;;;;5.38;0.30;;;;;;;12.76;100.00;99713.16;5012170;28;20068;-76
2021/03/25 12:50:48;;;;;;;0.20;0.20;;;;;;;13.18;100.00;99727.28;5022683;28;20053;-77
2021/03/25 12:53:51;;;;;;;0.80;0.30;;;;;;;13.02;100.00;99708.31;5004531;28;20061;-78
2021/03/25 12:57:02;;;;;;;4.25;0.20;;;;;;;12.93;100.00;99711.28;5011177;28;20061;-79
2021/03/25 13:00:24;;;;;;;0.10;0.10;;;;;;;12.73;100.00;99698.13;5006075;28;20061;-77
2021/03/25 13:03:28;;;;;;;0.10;0.10;;;;;;;12.73;100.00;99705.78;5010223;28;20060;-78
2021/03/25 13:06:31;;;;;;;0.63;0.20;;;;;;;12.67;100.00;99702.13;5011124;28;20077;-78
2021/03/25 13:09:35;;;;;;;2.85;0.40;;;;;;;12.90;100.00;99701.88;5011378;28;20061;-80
2021/03/25 13:12:38;;;;;;;2.30;0.40;;;;;;;13.13;100.00;99686.06;5011129;28;20077;-80
2021/03/25 13:15:42;;;;;;;0.43;0.20;;;;;;;13.10;100.00;99694.69;5010660;28;20069;-79
2021/03/25 13:18:46;;;;;;;0.10;0.10;;;;;;;12.86;100.00;99700.56;5003455;28;20065;-80
2021/03/25 13:21:50;;;;;;;1.95;0.30;;;;;;;12.91;100.00;99686.63;5003923;28;20065;-79
2021/03/25 13:24:54;;;;;;;0.10;0.00;;;;;;;13.15;100.00;99686.31;5004676;28;20529;-78
2021/03/25 13:27:58;;;;;;;0.20;0.17;;;;;;;13.14;100.00;99686.84;5005094;28;20521;-78
2021/03/25 13:31:02;;;;;;;1.30;0.20;;;;;;;13.00;100.00;99691.25;5005575;28;20064;-78
2021/03/25 13:34:06;;;;;;;1.33;0.30;;;;;;;13.00;100.00;99682.88;5010691;28;20065;-78
2021/03/25 13:37:09;;;;;;;4.70;0.57;;;;;;;13.33;100.00;99677.56;5011272;28;20056;-78
2021/03/25 13:40:15;;;;;;;1.02;0.63;;;;;;;13.34;100.00;99678.34;5007372;28;20403;-80
2021/03/25 13:43:31;;;;;;;1.98;0.10;;;;;;;13.00;100.00;99676.50;5010507;28;20065;-79
2021/03/25 13:46:34;;;;;;;0.20;0.20;;;;;;;12.56;100.00;99671.34;5011213;28;20418;-80
2021/03/25 13:49:38;;;;;;;1.85;0.30;;;;;;;12.33;100.00;99663.97;5011286;28;20061;-79
2021/03/25 13:52:42;;;;;;;0.22;0.22;;;;;;;12.59;100.00;99671.09;5010782;28;20065;-81
2021/03/25 13:55:47;;;;;;;0.10;0.10;;;;;;;12.89;100.00;99652.03;5003224;28;20061;-80
2021/03/25 13:58:51;;;;;;;0.35;0.20;;;;;;;13.20;100.00;99652.06;5003950;28;20084;-81
2021/03/25 14:01:54;;;;;;;0.20;0.20;;;;;;;13.30;100.00;99656.19;4996757;28;20065;-80
2021/03/25 14:04:58;;;;;;;2.08;0.63;;;;;;;13.07;100.00;99662.13;5005090;28;20064;-79
2021/03/25 14:08:04;;;;;;;5.00;0.60;;;;;;;13.02;100.00;99649.59;5010813;28;20065;-80
2021/03/25 14:11:07;;;;;;;2.70;0.30;;;;;;;13.02;100.00;99646.81;5006404;28;20060;-80
2021/03/25 14:14:11;;;;;;;9.60;1.65;;;;;;;13.01;100.00;99639.69;5009981;28;20082;-80
2021/03/25 14:17:15;;;;;;;5.93;1.33;;;;;;;13.08;100.00;99636.44;5006661;28;20065;-79
2021/03/25 14:20:21;;;;;;;10.07;2.00;;;;;;;13.11;100.00;99635.47;5009870;28;20061;-80
2021/03/25 14:23:26;;;;;;;3.25;1.13;;;;;;;13.12;100.00;99637.00;5011581;28;20069;-83
2021/03/25 14:26:29;;;;;;;3.78;1.00;;;;;;;13.13;100.00;99632.94;5010094;28;20057;-85
2021/03/25 14:29:33;;;;;;;9.10;0.95;;;;;;;13.14;100.00;99614.91;5010329;28;20061;-85
2021/03/25 14:32:37;;;;;;;9.20;0.73;;;;;;;13.14;100.00;99609.31;5020247;28;20426;-84
2021/03/25 14:35:43;;;;;;;7.03;1.17;;;;;;;13.07;100.00;99604.19;5011021;28;20061;-87
2021/03/25 14:38:46;;;;;;;6.88;1.35;;;;;;;13.12;100.00;99606.25;5000334;28;20068;-86
2021/03/25 14:41:50;;;;;;;3.00;0.68;;;;;;;13.21;100.00;99608.84;5019689;28;20068;-87
2021/03/25 14:44:53;;;;;;;6.75;0.60;;;;;;;13.24;100.00;99602.25;5009912;28;20056;-84
2021/03/25 14:47:57;;;;;;;1.80;0.50;;;;;;;13.30;100.00;99599.47;5006981;28;20057;-82
2021/03/25 14:51:05;;;;;;;2.25;0.52;;;;;;;13.22;100.00;99593.59;5012743;28;20120;-83